Time;durP1;ratioP1;P1;durP2;ratioP2;P2;SDS_P1;SDS_P2;PMS_P1;PMS_P2;Temp;Humidity;BMP_temperature;BMP_pressure;BME280_temperature;BME280_humidity;BME280_pressure;Samples;Min_cycle;Max_cycle;Signal;HPM_P1;HPM_P2
2024/02/23 00:01:57;;;;;;;7.47;1.02;;;;;;;;;;5052182;28;20431;-83
2024/02/23 00:04:23;;;;;;;5.07;1.23;;;;;;;;;;5053434;28;20461;-82
2024/02/23 00:06:50;;;;;;;7.57;1.63;;;;;;;;;;5051773;28;20021;-82
2024/02/23 00:09:16;;;;;;;4.10;1.05;;;;;;;;;;5051850;28;20017;-78
2024/02/23 00:11:44;;;;;;;5.70;1.20;;;;;;;;;;5051356;28;20067;-78
2024/02/23 00:14:13;;;;;;;5.30;1.25;;;;;;;;;;5053205;28;20480;-79
2024/02/23 00:16:40;;;;;;;3.17;0.90;;;;;;;;;;5051584;28;20025;-79
2024/02/23 00:19:06;;;;;;;9.15;1.67;;;;;;;;;;5053446;28;20017;-79
2024/02/23 00:21:32;;;;;;;5.82;1.83;;;;;;;;;;5051603;28;20059;-79
2024/02/23 00:23:58;;;;;;;7.20;2.22;;;;;;;;;;5053128;28;20021;-80
2024/02/23 00:26:24;;;;;;;5.00;1.23;;;;;;;;;;5051706;28;20029;-80
2024/02/23 00:28:50;;;;;;;5.35;1.83;;;;;;;;;;5051529;28;20025;-79
2024/02/23 00:31:16;;;;;;;7.57;1.63;;;;;;;;;;5051667;28;20071;-81
2024/02/23 00:33:43;;;;;;;7.22;2.28;;;;;;;;;;5051122;28;20029;-81
2024/02/23 00:36:09;;;;;;;6.00;1.60;;;;;;;;;;5051709;28;20029;-80
2024/02/23 00:38:35;;;;;;;6.03;1.85;;;;;;;;;;5051483;28;20071;-80
2024/02/23 00:41:01;;;;;;;9.45;1.92;;;;;;;;;;5052014;28;20033;-78
2024/02/23 00:43:29;;;;;;;6.82;1.80;;;;;;;;;;5055159;28;20025;-81
2024/02/23 00:45:55;;;;;;;7.10;1.73;;;;;;;;;;5052280;28;20123;-79
2024/02/23 00:48:21;;;;;;;11.70;2.17;;;;;;;;;;5052795;28;20025;-79
2024/02/23 00:50:47;;;;;;;4.60;1.67;;;;;;;;;;5054870;28;20527;-81
2024/02/23 00:53:13;;;;;;;10.13;2.50;;;;;;;;;;5071200;28;20156;-81
2024/02/23 00:55:39;;;;;;;7.68;1.90;;;;;;;;;;5070913;28;20032;-82
2024/02/23 00:58:06;;;;;;;6.97;1.23;;;;;;;;;;5070449;28;20329;-82
2024/02/23 01:00:35;;;;;;;5.57;1.52;;;;;;;;;;5071072;28;20036;-81
2024/02/23 01:03:01;;;;;;;7.15;1.65;;;;;;;;;;5071215;28;20545;-81
2024/02/23 01:05:27;;;;;;;9.40;1.33;;;;;;;;;;5072440;28;20028;-81
2024/02/23 01:07:53;;;;;;;5.07;1.83;;;;;;;;;;5070905;28;20103;-83
2024/02/23 01:10:19;;;;;;;7.28;1.70;;;;;;;;;;5071086;28;20077;-82
2024/02/23 01:12:45;;;;;;;8.43;2.00;;;;;;;;;;5070200;28;20492;-80
2024/02/23 01:15:11;;;;;;;9.15;1.63;;;;;;;;;;5071160;28;20040;-82
2024/02/23 01:17:38;;;;;;;6.53;2.30;;;;;;;;;;5071094;28;20380;-80
2024/02/23 01:20:04;;;;;;;8.77;3.33;;;;;;;;;;5070910;28;20025;-79
2024/02/23 01:22:30;;;;;;;11.25;3.90;;;;;;;;;;5071973;28;20047;-80
2024/02/23 01:24:57;;;;;;;7.90;3.95;;;;;;;;;;5073308;28;20040;-80
2024/02/23 01:27:23;;;;;;;9.35;3.88;;;;;;;;;;5070921;28;20060;-80
2024/02/23 01:29:49;;;;;;;12.07;4.57;;;;;;;;;;5070848;28;20380;-81
2024/02/23 01:32:15;;;;;;;11.63;5.05;;;;;;;;;;5070720;28;20531;-81
2024/02/23 01:34:41;;;;;;;17.60;6.03;;;;;;;;;;5070479;28;20025;-80
2024/02/23 01:37:07;;;;;;;9.60;4.97;;;;;;;;;;5070705;28;20025;-81
2024/02/23 01:39:33;;;;;;;8.70;4.82;;;;;;;;;;5071814;28;20020;-80
2024/02/23 01:41:59;;;;;;;10.02;4.25;;;;;;;;;;5070685;28;20025;-80
2024/02/23 01:44:25;;;;;;;8.82;3.72;;;;;;;;;;5070647;28;20024;-81
2024/02/23 01:46:51;;;;;;;7.97;4.70;;;;;;;;;;5070429;28;20021;-78
2024/02/23 01:49:18;;;;;;;9.18;3.28;;;;;;;;;;5072284;28;20071;-79
2024/02/23 01:51:44;;;;;;;16.75;3.60;;;;;;;;;;5070361;28;20103;-79
2024/02/23 01:54:10;;;;;;;5.75;2.70;;;;;;;;;;5070641;28;20021;-79
2024/02/23 01:56:39;;;;;;;7.53;2.78;;;;;;;;;;5070357;28;20032;-79
2024/02/23 01:59:05;;;;;;;9.32;3.08;;;;;;;;;;5070695;28;20032;-79
2024/02/23 02:01:32;;;;;;;15.05;4.10;;;;;;;;;;5070670;28;20052;-81
2024/02/23 02:03:59;;;;;;;15.32;3.17;;;;;;;;;;5070196;28;20024;-80
2024/02/23 02:06:25;;;;;;;11.52;2.63;;;;;;;;;;5070466;28;20078;-81
2024/02/23 02:08:51;;;;;;;11.07;3.20;;;;;;;;;;5071499;28;20025;-79
2024/02/23 02:11:17;;;;;;;8.20;2.28;;;;;;;;;;5073916;28;20098;-79
2024/02/23 02:13:43;;;;;;;7.05;2.15;;;;;;;;;;5073937;28;20463;-81
2024/02/23 02:16:11;;;;;;;9.77;2.03;;;;;;;;;;5074145;28;20028;-81
2024/02/23 02:18:37;;;;;;;6.38;1.73;;;;;;;;;;5073882;28;20055;-80
2024/02/23 02:21:03;;;;;;;9.98;2.60;;;;;;;;;;5073914;28;20028;-80
2024/02/23 02:23:29;;;;;;;9.95;2.22;;;;;;;;;;5073768;28;20048;-80
2024/02/23 02:25:55;;;;;;;12.52;2.15;;;;;;;;;;5073664;28;20519;-80
2024/02/23 02:28:21;;;;;;;8.15;1.55;;;;;;;;;;5073791;28;20021;-81
2024/02/23 02:30:47;;;;;;;6.25;1.77;;;;;;;;;;5073612;28;20032;-81
2024/02/23 02:33:13;;;;;;;10.63;2.08;;;;;;;;;;5073864;28;20479;-81
2024/02/23 02:35:39;;;;;;;11.60;2.03;;;;;;;;;;5073458;28;20024;-80
2024/02/23 02:38:05;;;;;;;6.35;2.00;;;;;;;;;;5073645;28;20024;-80
2024/02/23 02:40:32;;;;;;;4.43;1.33;;;;;;;;;;5075073;28;20016;-79
2024/02/23 02:42:58;;;;;;;5.28;1.33;;;;;;;;;;5074139;28;20027;-79
2024/02/23 02:45:24;;;;;;;10.55;1.98;;;;;;;;;;5078964;28;20025;-82
2024/02/23 02:47:50;;;;;;;17.92;1.98;;;;;;;;;;5074204;28;20028;-78
2024/02/23 02:50:16;;;;;;;6.35;2.22;;;;;;;;;;5073995;28;20020;-81
2024/02/23 02:52:43;;;;;;;5.38;1.30;;;;;;;;;;5073318;28;20067;-79
2024/02/23 02:55:09;;;;;;;3.22;1.00;;;;;;;;;;5074826;28;20043;-80
2024/02/23 02:57:38;;;;;;;5.03;1.40;;;;;;;;;;5073477;28;20025;-80
2024/02/23 03:00:08;;;;;;;7.53;1.60;;;;;;;;;;5073133;28;20395;-80
2024/02/23 03:02:35;;;;;;;10.52;1.73;;;;;;;;;;5073099;28;20025;-80
2024/02/23 03:05:01;;;;;;;10.88;1.77;;;;;;;;;;5074146;28;20021;-80
2024/02/23 03:07:27;;;;;;;7.30;1.40;;;;;;;;;;5074434;28;20025;-80
2024/02/23 03:09:54;;;;;;;15.20;2.70;;;;;;;;;;5072855;28;20036;-79
2024/02/23 03:12:20;;;;;;;6.10;1.40;;;;;;;;;;5072783;28;20140;-79
2024/02/23 03:14:46;;;;;;;8.32;1.65;;;;;;;;;;5073478;28;20464;-79
2024/02/23 03:17:12;;;;;;;9.15;1.98;;;;;;;;;;5073651;28;20027;-80
2024/02/23 03:19:38;;;;;;;5.95;1.50;;;;;;;;;;5073245;28;20074;-80
2024/02/23 03:22:04;;;;;;;6.22;1.70;;;;;;;;;;5072316;28;20039;-83
2024/02/23 03:24:30;;;;;;;8.38;1.60;;;;;;;;;;5072971;28;20024;-81
2024/02/23 03:26:57;;;;;;;5.75;1.20;;;;;;;;;;5072614;28;20020;-81
2024/02/23 03:29:24;;;;;;;7.78;1.98;;;;;;;;;;5072783;28;20020;-80
2024/02/23 03:31:50;;;;;;;6.13;1.73;;;;;;;;;;5072270;28;20055;-81
2024/02/23 03:34:17;;;;;;;6.65;1.60;;;;;;;;;;5072664;28;20028;-80
2024/02/23 03:36:43;;;;;;;12.52;2.05;;;;;;;;;;5072452;28;20070;-81
2024/02/23 03:39:10;;;;;;;8.60;1.60;;;;;;;;;;5072679;28;20120;-80
2024/02/23 03:41:36;;;;;;;10.07;2.45;;;;;;;;;;5072565;28;20025;-80
2024/02/23 03:44:02;;;;;;;11.00;2.92;;;;;;;;;;5072359;28;20024;-80
2024/02/23 03:46:28;;;;;;;10.88;1.60;;;;;;;;;;5072480;28;20029;-80
2024/02/23 03:48:54;;;;;;;10.90;1.42;;;;;;;;;;5072183;28;20036;-81
2024/02/23 03:51:20;;;;;;;8.82;1.45;;;;;;;;;;5072287;28;20128;-80
2024/02/23 03:53:46;;;;;;;3.90;1.70;;;;;;;;;;5072037;28;20119;-79
2024/02/23 03:56:12;;;;;;;8.20;2.05;;;;;;;;;;5072324;28;20491;-79
2024/02/23 03:58:38;;;;;;;10.57;2.45;;;;;;;;;;5073345;28;20028;-79
2024/02/23 04:01:04;;;;;;;6.55;1.88;;;;;;;;;;5073033;28;20357;-79
2024/02/23 04:03:30;;;;;;;13.00;2.47;;;;;;;;;;5071901;28;20033;-80
2024/02/23 04:05:56;;;;;;;8.80;1.70;;;;;;;;;;5073240;28;20040;-79
2024/02/23 04:08:23;;;;;;;13.13;2.03;;;;;;;;;;5073018;28;20020;-80
2024/02/23 04:10:49;;;;;;;9.88;2.35;;;;;;;;;;5071334;28;20065;-79
2024/02/23 04:13:15;;;;;;;5.15;1.67;;;;;;;;;;5071414;28;20052;-79
2024/02/23 04:15:41;;;;;;;3.67;1.33;;;;;;;;;;5073143;28;20024;-78
2024/02/23 04:18:07;;;;;;;9.88;1.75;;;;;;;;;;5072834;28;20020;-77
2024/02/23 04:20:33;;;;;;;6.95;1.92;;;;;;;;;;5073021;28;20016;-78
2024/02/23 04:22:59;;;;;;;9.90;2.10;;;;;;;;;;5072777;28;20056;-78
2024/02/23 04:25:25;;;;;;;10.48;2.20;;;;;;;;;;5071698;28;20047;-78
2024/02/23 04:27:51;;;;;;;7.13;1.98;;;;;;;;;;5071447;28;20032;-77
2024/02/23 04:30:18;;;;;;;6.07;1.92;;;;;;;;;;5071628;28;20028;-77
2024/02/23 04:32:44;;;;;;;8.95;3.83;;;;;;;;;;5070528;28;20028;-78
2024/02/23 04:35:10;;;;;;;6.05;1.60;;;;;;;;;;5071626;28;20024;-78
2024/02/23 04:37:36;;;;;;;9.50;1.95;;;;;;;;;;5071734;28;20487;-78
2024/02/23 04:40:04;;;;;;;9.00;2.33;;;;;;;;;;5069986;28;20020;-80
2024/02/23 04:42:30;;;;;;;10.75;2.20;;;;;;;;;;5055055;28;20086;-81
2024/02/23 04:44:56;;;;;;;8.93;1.90;;;;;;;;;;5053005;28;20114;-80
2024/02/23 04:47:22;;;;;;;8.88;2.65;;;;;;;;;;5058595;28;20449;-79
2024/02/23 04:49:49;;;;;;;8.85;2.00;;;;;;;;;;5052190;28;20032;-80
2024/02/23 04:52:15;;;;;;;7.85;2.10;;;;;;;;;;5051207;28;20032;-81
2024/02/23 04:54:41;;;;;;;7.28;2.10;;;;;;;;;;5051464;28;20044;-80
2024/02/23 04:57:07;;;;;;;9.20;2.25;;;;;;;;;;5050989;28;20120;-80
2024/02/23 04:59:33;;;;;;;13.52;2.83;;;;;;;;;;5051197;28;20016;-79
2024/02/23 05:01:59;;;;;;;8.45;2.00;;;;;;;;;;5051909;28;20425;-81
2024/02/23 05:04:26;;;;;;;6.75;1.88;;;;;;;;;;5051158;28;20056;-81
2024/02/23 05:06:52;;;;;;;8.95;1.67;;;;;;;;;;5050967;28;20358;-82
2024/02/23 05:09:20;;;;;;;9.68;1.60;;;;;;;;;;5051154;28;20449;-80
2024/02/23 05:11:47;;;;;;;9.63;2.30;;;;;;;;;;5051990;28;20083;-79
2024/02/23 05:14:13;;;;;;;9.90;3.15;;;;;;;;;;5052568;28;20075;-79
2024/02/23 05:16:39;;;;;;;7.97;2.58;;;;;;;;;;5050883;28;20388;-78
2024/02/23 05:19:05;;;;;;;11.10;2.22;;;;;;;;;;5050534;28;20017;-78
2024/02/23 05:21:31;;;;;;;12.15;1.90;;;;;;;;;;5050870;28;20082;-78
2024/02/23 05:23:57;;;;;;;10.15;2.10;;;;;;;;;;5050726;28;20042;-77
2024/02/23 05:26:23;;;;;;;12.18;2.13;;;;;;;;;;5052443;28;20032;-78
2024/02/23 05:28:49;;;;;;;10.05;1.98;;;;;;;;;;5063211;28;20158;-78
2024/02/23 05:31:15;;;;;;;7.88;1.60;;;;;;;;;;5070669;28;20048;-78
2024/02/23 05:33:41;;;;;;;12.25;2.72;;;;;;;;;;5070741;28;20407;-80
2024/02/23 05:36:08;;;;;;;10.05;2.03;;;;;;;;;;5070357;28;20028;-78
2024/02/23 05:38:34;;;;;;;7.15;1.85;;;;;;;;;;5070848;28;20499;-78
2024/02/23 05:41:00;;;;;;;6.88;1.63;;;;;;;;;;5071535;28;20021;-79
2024/02/23 05:43:26;;;;;;;15.13;1.88;;;;;;;;;;5070783;28;20024;-78
2024/02/23 05:45:54;;;;;;;7.70;2.00;;;;;;;;;;5074086;28;20024;-79
2024/02/23 05:48:20;;;;;;;8.55;1.83;;;;;;;;;;5074923;28;20025;-79
2024/02/23 05:50:46;;;;;;;9.80;3.20;;;;;;;;;;5059661;28;20119;-80
2024/02/23 05:53:12;;;;;;;11.60;1.75;;;;;;;;;;5055828;28;20017;-79
2024/02/23 05:55:38;;;;;;;8.48;2.25;;;;;;;;;;5054643;28;20029;-79
2024/02/23 05:58:05;;;;;;;13.48;2.47;;;;;;;;;;5056414;28;20032;-78
2024/02/23 06:00:31;;;;;;;8.73;1.85;;;;;;;;;;5054522;28;20021;-79
2024/02/23 06:02:57;;;;;;;9.30;1.80;;;;;;;;;;5054274;28;20020;-78
2024/02/23 06:05:23;;;;;;;8.10;2.13;;;;;;;;;;5055961;28;20049;-78
2024/02/23 06:07:49;;;;;;;10.82;2.05;;;;;;;;;;5054243;28;20025;-80
2024/02/23 06:10:15;;;;;;;8.98;2.30;;;;;;;;;;5054402;28;20021;-81
2024/02/23 06:12:41;;;;;;;11.77;2.70;;;;;;;;;;5053582;28;20056;-79
2024/02/23 06:15:08;;;;;;;8.90;2.35;;;;;;;;;;5053720;28;20045;-80
2024/02/23 06:17:34;;;;;;;8.68;2.13;;;;;;;;;;5055425;28;20041;-80
2024/02/23 06:20:00;;;;;;;7.47;2.03;;;;;;;;;;5053739;28;20430;-80
2024/02/23 06:22:26;;;;;;;7.18;1.95;;;;;;;;;;5053882;28;20029;-80
2024/02/23 06:24:52;;;;;;;7.55;1.85;;;;;;;;;;5053790;28;20029;-80
2024/02/23 06:27:18;;;;;;;11.23;2.25;;;;;;;;;;5054066;28;20367;-80
2024/02/23 06:29:44;;;;;;;7.35;1.85;;;;;;;;;;5054995;28;20473;-78
2024/02/23 06:32:10;;;;;;;7.32;1.88;;;;;;;;;;5053591;28;20102;-79
2024/02/23 06:34:36;;;;;;;10.77;2.83;;;;;;;;;;5053744;28;20075;-79
2024/02/23 06:37:03;;;;;;;8.50;1.80;;;;;;;;;;5054670;28;20033;-82
2024/02/23 06:39:29;;;;;;;6.65;1.73;;;;;;;;;;5054080;28;20021;-81
2024/02/23 06:41:55;;;;;;;7.50;2.00;;;;;;;;;;5055799;28;20040;-79
2024/02/23 06:44:21;;;;;;;7.57;2.03;;;;;;;;;;5054556;28;20116;-81
2024/02/23 06:46:47;;;;;;;5.10;1.58;;;;;;;;;;5055086;28;20461;-78
2024/02/23 06:49:13;;;;;;;9.77;2.45;;;;;;;;;;5055034;28;20021;-85
2024/02/23 06:51:40;;;;;;;8.13;1.45;;;;;;;;;;5053872;28;20032;-82
2024/02/23 06:54:07;;;;;;;9.48;1.48;;;;;;;;;;5053339;28;20025;-83
2024/02/23 06:56:34;;;;;;;9.43;2.95;;;;;;;;;;5052207;28;20596;-82
2024/02/23 06:59:00;;;;;;;7.18;1.88;;;;;;;;;;5053116;28;20114;-83
2024/02/23 07:01:27;;;;;;;11.50;2.75;;;;;;;;;;5053281;28;20029;-82
2024/02/23 07:03:53;;;;;;;9.38;1.95;;;;;;;;;;5060137;28;20484;-82
2024/02/23 07:06:19;;;;;;;7.93;1.77;;;;;;;;;;5073379;28;20028;-83
2024/02/23 07:08:45;;;;;;;4.00;1.27;;;;;;;;;;5073194;28;20024;-83
2024/02/23 07:11:12;;;;;;;10.52;1.70;;;;;;;;;;5073203;28;20082;-84
2024/02/23 07:13:56;;;;;;;9.52;1.88;;;;;;;;;;5073174;28;20077;-85
2024/02/23 07:16:22;;;;;;;6.35;1.88;;;;;;;;;;5072770;28;20032;-83
2024/02/23 07:18:48;;;;;;;6.50;1.63;;;;;;;;;;5072873;28;20119;-84
2024/02/23 07:21:14;;;;;;;5.85;1.50;;;;;;;;;;5072677;28;20044;-83
2024/02/23 07:23:40;;;;;;;6.38;1.38;;;;;;;;;;5074098;28;20028;-84
2024/02/23 07:26:06;;;;;;;8.38;1.60;;;;;;;;;;5072456;28;20025;-84
2024/02/23 07:28:33;;;;;;;7.63;1.80;;;;;;;;;;5073053;28;20025;-84
2024/02/23 07:30:59;;;;;;;12.00;2.47;;;;;;;;;;5072366;28;20268;-84
2024/02/23 07:33:25;;;;;;;10.25;1.23;;;;;;;;;;5073014;28;20286;-84
2024/02/23 07:36:05;;;;;;;11.20;2.78;;;;;;;;;;5074207;28;20086;-84
2024/02/23 07:38:31;;;;;;;5.65;1.45;;;;;;;;;;5073439;28;20063;-83
2024/02/23 07:40:58;;;;;;;8.00;2.08;;;;;;;;;;5072448;28;20055;-83
2024/02/23 07:43:26;;;;;;;8.13;1.45;;;;;;;;;;5072235;28;20394;-83
2024/02/23 07:45:52;;;;;;;9.07;2.08;;;;;;;;;;5072334;28;20431;-83
2024/02/23 07:48:18;;;;;;;8.15;1.52;;;;;;;;;;5072430;28;20032;-83
2024/02/23 07:50:44;;;;;;;8.98;2.40;;;;;;;;;;5072658;28;20029;-84
2024/02/23 07:53:10;;;;;;;15.40;2.50;;;;;;;;;;5071937;28;20468;-83
2024/02/23 07:55:36;;;;;;;11.98;1.67;;;;;;;;;;5072425;28;20025;-84
2024/02/23 07:58:02;;;;;;;8.77;2.80;;;;;;;;;;5074708;28;20043;-84
2024/02/23 08:00:28;;;;;;;5.50;1.30;;;;;;;;;;5074414;28;20107;-85
2024/02/23 08:02:56;;;;;;;5.72;1.40;;;;;;;;;;5072148;28;20050;-84
2024/02/23 08:05:23;;;;;;;6.10;1.40;;;;;;;;;;5072193;28;20078;-84
2024/02/23 08:07:49;;;;;;;6.90;1.70;;;;;;;;;;5071962;28;20439;-84
2024/02/23 08:10:15;;;;;;;7.63;1.50;;;;;;;;;;5072092;28;20024;-84
2024/02/23 08:12:43;;;;;;;8.85;1.98;;;;;;;;;;5071618;28;20130;-84
2024/02/23 08:15:09;;;;;;;7.38;1.85;;;;;;;;;;5071224;28;20032;-84
2024/02/23 08:17:35;;;;;;;7.45;1.20;;;;;;;;;;5071706;28;20024;-84
2024/02/23 08:20:01;;;;;;;10.85;1.73;;;;;;;;;;5071108;28;20031;-84
2024/02/23 08:22:27;;;;;;;9.25;2.05;;;;;;;;;;5071369;28;20369;-84
2024/02/23 08:24:53;;;;;;;8.88;1.27;;;;;;;;;;5071692;28;20020;-83
2024/02/23 08:27:19;;;;;;;6.05;1.67;;;;;;;;;;5071388;28;20468;-83
2024/02/23 08:29:45;;;;;;;10.30;1.58;;;;;;;;;;5071164;28;20119;-84
2024/02/23 08:32:12;;;;;;;8.35;2.28;;;;;;;;;;5070965;28;20127;-84
2024/02/23 08:34:39;;;;;;;8.07;1.73;;;;;;;;;;5072948;28;20103;-83
2024/02/23 08:37:05;;;;;;;8.60;2.08;;;;;;;;;;5070955;28;20028;-84
2024/02/23 08:39:33;;;;;;;9.30;1.88;;;;;;;;;;5071457;28;20029;-83
2024/02/23 08:41:59;;;;;;;7.97;1.63;;;;;;;;;;5071240;28;20478;-83
2024/02/23 08:44:25;;;;;;;16.33;3.33;;;;;;;;;;5071167;28;20116;-82
2024/02/23 08:46:51;;;;;;;9.32;2.60;;;;;;;;;;5072355;28;20077;-83
2024/02/23 08:49:17;;;;;;;7.97;1.55;;;;;;;;;;5072444;28;20498;-82
2024/02/23 08:51:43;;;;;;;7.20;1.30;;;;;;;;;;5071081;28;20032;-82
2024/02/23 08:54:09;;;;;;;12.68;1.95;;;;;;;;;;5070759;28;20037;-83
2024/02/23 08:56:42;;;;;;;9.60;1.60;;;;;;;;;;5071279;28;20017;-83
2024/02/23 08:59:08;;;;;;;12.65;2.17;;;;;;;;;;5070642;28;20031;-83
2024/02/23 09:01:34;;;;;;;10.10;1.42;;;;;;;;;;5070761;28;20032;-83
2024/02/23 09:04:01;;;;;;;8.05;1.30;;;;;;;;;;5070516;28;20017;-83
2024/02/23 09:06:27;;;;;;;9.85;2.17;;;;;;;;;;5070878;28;20103;-83
2024/02/23 09:08:53;;;;;;;9.13;1.77;;;;;;;;;;5070974;28;20021;-83
2024/02/23 09:11:19;;;;;;;7.97;1.48;;;;;;;;;;5070273;28;20420;-84
2024/02/23 09:13:45;;;;;;;6.97;1.92;;;;;;;;;;5072365;28;20085;-84
2024/02/23 09:16:11;;;;;;;10.02;1.50;;;;;;;;;;5071974;28;20024;-83
2024/02/23 09:18:37;;;;;;;11.93;1.70;;;;;;;;;;5073160;28;20016;-84
2024/02/23 09:21:04;;;;;;;6.40;1.40;;;;;;;;;;5071460;28;20021;-83
2024/02/23 09:23:30;;;;;;;9.05;1.30;;;;;;;;;;5072033;28;20025;-83
2024/02/23 09:25:56;;;;;;;13.50;2.40;;;;;;;;;;5072088;28;20021;-82
2024/02/23 09:28:22;;;;;;;8.23;1.63;;;;;;;;;;5071697;28;20024;-83
2024/02/23 09:30:48;;;;;;;8.93;1.83;;;;;;;;;;5071646;28;20024;-83
2024/02/23 09:33:14;;;;;;;7.00;1.35;;;;;;;;;;5071949;28;20029;-84
2024/02/23 09:35:40;;;;;;;8.15;1.90;;;;;;;;;;5073315;28;20017;-82
2024/02/23 09:38:06;;;;;;;8.43;2.00;;;;;;;;;;5071959;28;20046;-83
2024/02/23 09:40:32;;;;;;;7.65;1.73;;;;;;;;;;5072107;28;20472;-83
2024/02/23 09:42:59;;;;;;;10.00;1.42;;;;;;;;;;5072052;28;20025;-83
2024/02/23 09:45:29;;;;;;;5.05;1.40;;;;;;;;;;5072114;28;20119;-84
2024/02/23 09:47:56;;;;;;;8.52;1.88;;;;;;;;;;5072321;28;20032;-84
2024/02/23 09:50:25;;;;;;;8.70;2.28;;;;;;;;;;5055111;28;20391;-83
2024/02/23 09:52:52;;;;;;;9.43;1.50;;;;;;;;;;5071814;28;20024;-82
2024/02/23 09:55:21;;;;;;;8.45;1.48;;;;;;;;;;5055809;28;20028;-83
2024/02/23 09:57:48;;;;;;;12.15;1.73;;;;;;;;;;5072457;28;20784;-83
2024/02/23 10:00:17;;;;;;;8.63;1.80;;;;;;;;;;5072078;28;20028;-83
2024/02/23 10:02:43;;;;;;;5.78;1.30;;;;;;;;;;5074120;28;20337;-83
2024/02/23 10:05:12;;;;;;;10.02;1.55;;;;;;;;;;5072603;28;20464;-83
2024/02/23 10:07:39;;;;;;;7.50;1.48;;;;;;;;;;5073139;28;20119;-83
2024/02/23 10:10:08;;;;;;;9.88;1.73;;;;;;;;;;5074500;28;20024;-81
2024/02/23 10:12:38;;;;;;;6.50;1.15;;;;;;;;;;5074521;28;20041;-81
2024/02/23 10:15:04;;;;;;;9.45;1.75;;;;;;;;;;5073510;28;20115;-83
2024/02/23 10:17:31;;;;;;;8.63;1.20;;;;;;;;;;5073146;28;20078;-83
2024/02/23 10:19:58;;;;;;;12.23;2.30;;;;;;;;;;5073944;28;20031;-84
2024/02/23 10:22:25;;;;;;;8.48;2.13;;;;;;;;;;5072005;28;20683;-83
2024/02/23 10:24:51;;;;;;;8.63;1.98;;;;;;;;;;5072255;28;20032;-84
2024/02/23 10:27:17;;;;;;;13.23;1.92;;;;;;;;;;5071819;28;20158;-83
2024/02/23 10:29:44;;;;;;;11.90;2.00;;;;;;;;;;5072038;28;20120;-82
2024/02/23 10:32:15;;;;;;;5.40;1.60;;;;;;;;;;5075468;28;20052;-83
2024/02/23 10:34:43;;;;;;;6.55;1.70;;;;;;;;;;5075471;28;20036;-82
2024/02/23 10:37:09;;;;;;;8.30;1.35;;;;;;;;;;5058983;28;20021;-84
2024/02/23 10:39:39;;;;;;;4.50;1.42;;;;;;;;;;5075550;28;20078;-82
2024/02/23 10:42:07;;;;;;;11.93;1.95;;;;;;;;;;5075716;28;20055;-82
2024/02/23 10:44:33;;;;;;;7.35;1.35;;;;;;;;;;5075626;28;20025;-84
2024/02/23 10:46:59;;;;;;;6.13;1.70;;;;;;;;;;5075861;28;20039;-83
2024/02/23 10:49:26;;;;;;;4.05;1.50;;;;;;;;;;5075552;28;20021;-83
2024/02/23 10:51:52;;;;;;;7.43;2.08;;;;;;;;;;5075498;28;20032;-83
2024/02/23 10:54:20;;;;;;;8.90;1.45;;;;;;;;;;5073276;28;20024;-83
2024/02/23 10:56:47;;;;;;;4.65;1.13;;;;;;;;;;5073987;28;20051;-83
2024/02/23 10:59:16;;;;;;;5.03;1.13;;;;;;;;;;5075809;28;20060;-82
2024/02/23 11:01:42;;;;;;;6.20;1.38;;;;;;;;;;5059513;28;20028;-82
2024/02/23 11:04:08;;;;;;;5.78;1.10;;;;;;;;;;5074895;28;20050;-83
2024/02/23 11:06:34;;;;;;;6.00;1.65;;;;;;;;;;5075693;28;20115;-82
2024/02/23 11:09:08;;;;;;;6.53;1.13;;;;;;;;;;5075557;28;20024;-82
2024/02/23 11:11:34;;;;;;;4.82;1.10;;;;;;;;;;5075698;28;20039;-84
2024/02/23 11:14:03;;;;;;;6.05;1.40;;;;;;;;;;5076002;28;20025;-82
2024/02/23 11:16:33;;;;;;;4.40;1.27;;;;;;;;;;5075606;28;20046;-82
2024/02/23 11:19:05;;;;;;;6.80;1.30;;;;;;;;;;5075619;28;20037;-83
2024/02/23 11:21:37;;;;;;;3.97;1.13;;;;;;;;;;5075615;28;20029;-83
2024/02/23 11:24:03;;;;;;;5.03;1.10;;;;;;;;;;5075707;28;20562;-83
2024/02/23 11:26:29;;;;;;;5.15;1.33;;;;;;;;;;5075415;28;20027;-84
2024/02/23 11:28:55;;;;;;;5.50;1.35;;;;;;;;;;5075471;28;20021;-82
2024/02/23 11:31:25;;;;;;;5.03;1.20;;;;;;;;;;5074988;28;20033;-84
2024/02/23 11:33:53;;;;;;;7.15;1.40;;;;;;;;;;5075693;28;20492;-82
2024/02/23 11:36:28;;;;;;;6.15;1.48;;;;;;;;;;5075331;28;20035;-82
2024/02/23 11:38:55;;;;;;;6.20;1.42;;;;;;;;;;5076107;28;20021;-82
2024/02/23 11:41:23;;;;;;;3.78;1.13;;;;;;;;;;5075874;28;20024;-83
2024/02/23 11:43:49;;;;;;;4.22;1.33;;;;;;;;;;5074952;28;20025;-82
2024/02/23 11:46:18;;;;;;;5.13;1.30;;;;;;;;;;5075312;28;20024;-83
2024/02/23 11:48:46;;;;;;;5.53;1.27;;;;;;;;;;5075001;28;20032;-83
2024/02/23 11:51:13;;;;;;;6.13;1.33;;;;;;;;;;5074669;28;20480;-83
2024/02/23 11:53:42;;;;;;;;;;;;;;;;;;5074782;28;20028;-82
2024/02/23 11:56:08;;;;;;;7.18;2.00;;;;;;;;;;5074778;28;19908;-84
2024/02/23 11:58:35;;;;;;;7.07;1.27;;;;;;;;;;5074529;28;20035;-84
2024/02/23 12:01:02;;;;;;;8.02;1.75;;;;;;;;;;5074491;28;20032;-83
2024/02/23 12:03:31;;;;;;;9.85;1.27;;;;;;;;;;5074136;28;20028;-84
2024/02/23 12:05:58;;;;;;;5.13;1.45;;;;;;;;;;5074641;28;20039;-83
2024/02/23 12:08:27;;;;;;;7.75;1.45;;;;;;;;;;5074467;28;20111;-83
2024/02/23 12:10:59;;;;;;;6.07;1.27;;;;;;;;;;5072690;28;20024;-84
2024/02/23 12:13:29;;;;;;;8.23;1.48;;;;;;;;;;5072539;28;20091;-84
2024/02/23 12:15:56;;;;;;;8.48;2.00;;;;;;;;;;5072826;28;20020;-83
2024/02/23 12:18:26;;;;;;;8.00;1.55;;;;;;;;;;5072614;28;20036;-83
2024/02/23 12:20:52;;;;;;;;;;;;;;;;;;5072791;28;20020;-84
2024/02/23 12:23:18;;;;;;;6.25;1.65;;;;;;;;;;5073506;28;19999;-81
2024/02/23 12:25:54;;;;;;;4.28;1.13;;;;;;;;;;5076977;28;20047;-80
2024/02/23 12:28:20;;;;;;;7.13;1.42;;;;;;;;;;5077389;28;20111;-80
2024/02/23 12:30:46;;;;;;;6.80;1.48;;;;;;;;;;5074837;28;20143;-83
2024/02/23 12:33:16;;;;;;;7.13;1.65;;;;;;;;;;5071371;28;20036;-83
2024/02/23 12:35:42;;;;;;;4.95;1.63;;;;;;;;;;5072335;28;20114;-83
2024/02/23 12:38:09;;;;;;;3.00;1.10;;;;;;;;;;5071435;28;20025;-84
2024/02/23 12:40:35;;;;;;;7.15;1.75;;;;;;;;;;5072178;28;20036;-85
2024/02/23 12:43:01;;;;;;;6.47;1.50;;;;;;;;;;5072295;28;20115;-81
2024/02/23 12:45:27;;;;;;;4.93;1.48;;;;;;;;;;5071584;28;20050;-86
2024/02/23 12:47:53;;;;;;;8.32;1.67;;;;;;;;;;5071517;28;20024;-83
2024/02/23 12:50:19;;;;;;;7.35;1.50;;;;;;;;;;5071859;28;20028;-86
2024/02/23 12:52:47;;;;;;;5.43;1.40;;;;;;;;;;5072639;28;20032;-82
2024/02/23 12:55:13;;;;;;;5.43;1.52;;;;;;;;;;5071061;28;20021;-86
2024/02/23 12:57:39;;;;;;;5.03;1.63;;;;;;;;;;5072511;28;20366;-82
2024/02/23 13:00:05;;;;;;;5.60;1.30;;;;;;;;;;5071257;28;20104;-86
2024/02/23 13:02:31;;;;;;;8.55;1.58;;;;;;;;;;5071999;28;20059;-84
2024/02/23 13:04:57;;;;;;;11.23;1.50;;;;;;;;;;5071448;28;20031;-80
2024/02/23 13:07:23;;;;;;;10.27;2.53;;;;;;;;;;5072803;28;20066;-84
2024/02/23 13:09:49;;;;;;;4.30;1.30;;;;;;;;;;5072020;28;20082;-87
2024/02/23 13:12:15;;;;;;;8.85;2.28;;;;;;;;;;5071256;28;20071;-84
2024/02/23 13:14:41;;;;;;;5.22;1.58;;;;;;;;;;5071524;28;20021;-83
2024/02/23 13:17:07;;;;;;;5.63;1.48;;;;;;;;;;5071589;28;20044;-82
2024/02/23 13:19:34;;;;;;;7.63;1.80;;;;;;;;;;5072808;28;20095;-82
2024/02/23 13:22:00;;;;;;;6.57;1.42;;;;;;;;;;5072484;28;20106;-80
2024/02/23 13:24:27;;;;;;;7.00;1.40;;;;;;;;;;5070779;28;20029;-84
2024/02/23 13:26:53;;;;;;;5.53;1.58;;;;;;;;;;5071043;28;20464;-84
2024/02/23 13:29:20;;;;;;;4.82;1.15;;;;;;;;;;5071137;28;20040;-83
2024/02/23 13:31:46;;;;;;;6.28;1.52;;;;;;;;;;5070744;28;20453;-86
2024/02/23 13:34:15;;;;;;;6.28;1.52;;;;;;;;;;5070782;28;20028;-87
2024/02/23 13:36:44;;;;;;;5.18;1.50;;;;;;;;;;5072097;28;20056;-88
2024/02/23 13:39:10;;;;;;;7.05;1.73;;;;;;;;;;5072211;28;20029;-86
2024/02/23 13:41:36;;;;;;;5.57;0.90;;;;;;;;;;5072429;28;20021;-85
2024/02/23 13:44:03;;;;;;;9.98;1.83;;;;;;;;;;5054027;28;20048;-84
2024/02/23 13:46:29;;;;;;;10.90;1.50;;;;;;;;;;5070373;28;20906;-86
2024/02/23 13:49:06;;;;;;;4.53;1.20;;;;;;;;;;5070446;28;20024;-84
2024/02/23 13:51:35;;;;;;;7.03;1.45;;;;;;;;;;5069974;28;20033;-84
2024/02/23 13:54:03;;;;;;;6.82;1.98;;;;;;;;;;5070520;28;20093;-82
2024/02/23 13:56:29;;;;;;;6.90;2.55;;;;;;;;;;5070138;28;20116;-82
2024/02/23 13:58:55;;;;;;;7.68;1.67;;;;;;;;;;5070235;28;20033;-79
2024/02/23 14:01:21;;;;;;;3.78;1.25;;;;;;;;;;5070303;28;20082;-79
2024/02/23 14:03:47;;;;;;;5.07;1.10;;;;;;;;;;5070581;28;20025;-80
2024/02/23 14:06:13;;;;;;;7.15;1.90;;;;;;;;;;5073752;28;20017;-81
2024/02/23 14:08:39;;;;;;;6.13;1.80;;;;;;;;;;5074096;28;20028;-79
2024/02/23 14:11:05;;;;;;;5.35;1.55;;;;;;;;;;5074115;28;20506;-77
2024/02/23 14:13:32;;;;;;;9.32;2.10;;;;;;;;;;5073884;28;20090;-76
2024/02/23 14:15:58;;;;;;;8.68;1.75;;;;;;;;;;5074291;28;20465;-77
2024/02/23 14:18:24;;;;;;;8.85;1.98;;;;;;;;;;5075664;28;20111;-79
2024/02/23 14:20:52;;;;;;;9.35;1.98;;;;;;;;;;5074188;28;20024;-78
2024/02/23 14:23:18;;;;;;;5.30;1.23;;;;;;;;;;5075114;28;20476;-77
2024/02/23 14:25:44;;;;;;;6.00;1.63;;;;;;;;;;5074009;28;20029;-80
2024/02/23 14:28:11;;;;;;;5.07;1.83;;;;;;;;;;5073858;28;20507;-75
2024/02/23 14:30:38;;;;;;;9.48;1.88;;;;;;;;;;5075112;28;20016;-78
2024/02/23 14:33:04;;;;;;;3.80;1.15;;;;;;;;;;5073476;28;20480;-81
2024/02/23 14:35:30;;;;;;;5.82;1.65;;;;;;;;;;5077271;28;20024;-82
2024/02/23 14:37:56;;;;;;;7.50;2.22;;;;;;;;;;5084751;28;20025;-83